createdAt,value
2022-12-27T00:00:23.977Z,82.68
2022-12-27T00:03:34.579Z,83.11
2022-12-27T00:06:39.830Z,82.92
2022-12-27T00:09:42.534Z,82.93
2022-12-27T00:12:46.426Z,83.17
2022-12-27T00:15:52.333Z,82.46
2022-12-27T00:18:56.825Z,83.06
2022-12-27T00:22:05.397Z,83.42
2022-12-27T00:25:09.126Z,83.27
2022-12-27T00:28:11.784Z,83.50
2022-12-27T00:31:16.451Z,83.83
2022-12-27T00:34:20.513Z,84.22
2022-12-27T00:37:23.412Z,84.25
2022-12-27T00:40:26.136Z,84.73
2022-12-27T00:43:28.898Z,82.00
2022-12-27T00:46:37.686Z,83.02
2022-12-27T00:49:41.717Z,82.48
2022-12-27T00:52:44.465Z,83.50
2022-12-27T00:55:54.379Z,83.31
2022-12-27T00:59:05.499Z,83.79
2022-12-27T01:02:08.222Z,83.90
2022-12-27T01:05:12.341Z,84.48
2022-12-27T01:08:15.126Z,84.56
2022-12-27T01:11:18.860Z,84.71
2022-12-27T01:14:28.777Z,84.83
2022-12-27T01:17:31.466Z,84.28
2022-12-27T01:20:39.941Z,84.62
2022-12-27T01:23:53.370Z,85.10
2022-12-27T01:27:04.233Z,85.36
2022-12-27T01:30:08.063Z,85.67
2022-12-27T01:33:10.862Z,86.20
2022-12-27T01:36:20.131Z,85.93
2022-12-27T01:39:31.268Z,86.38
2022-12-27T01:42:51.553Z,87.01
2022-12-27T01:45:55.002Z,86.89
2022-12-27T01:48:57.979Z,87.31
2022-12-27T01:52:05.245Z,87.44
2022-12-27T01:55:24.261Z,87.50
2022-12-27T01:58:29.893Z,87.93
2022-12-27T02:01:36.141Z,88.32
2022-12-27T02:04:39.541Z,88.64
2022-12-27T02:07:53.963Z,88.54
2022-12-27T02:10:58.264Z,89.00
2022-12-27T02:14:04.148Z,88.90
2022-12-27T02:17:10.457Z,89.00
2022-12-27T02:20:16.934Z,89.22
2022-12-27T02:24:13.201Z,89.59
2022-12-27T02:27:29.035Z,89.87
2022-12-27T02:30:35.099Z,90.33
2022-12-27T02:33:44.493Z,90.19
2022-12-27T02:36:47.997Z,90.64
2022-12-27T02:39:51.516Z,90.52
2022-12-27T02:43:12.146Z,91.03
2022-12-27T02:46:39.371Z,91.12
2022-12-27T02:50:01.841Z,91.15
2022-12-27T02:53:17.532Z,91.10
2022-12-27T02:56:56.519Z,91.20
2022-12-27T03:00:25.533Z,91.46
2022-12-27T03:04:15.859Z,91.65
2022-12-27T03:07:30.300Z,91.39
2022-12-27T03:11:08.549Z,91.42
2022-12-27T03:14:49.450Z,91.60
2022-12-27T03:18:00.645Z,91.70
2022-12-27T03:21:24.939Z,91.92
2022-12-27T03:24:49.246Z,91.84
2022-12-27T03:28:08.258Z,91.34
2022-12-27T03:31:35.228Z,91.62
2022-12-27T03:34:41.273Z,91.97
2022-12-27T03:38:05.851Z,92.14
2022-12-27T03:41:27.662Z,92.15
2022-12-27T03:44:30.543Z,92.52
2022-12-27T03:47:42.534Z,92.47
2022-12-27T03:50:51.604Z,92.81
2022-12-27T03:54:04.394Z,92.68
2022-12-27T03:57:13.385Z,92.51
2022-12-27T04:00:16.532Z,92.46
2022-12-27T04:03:19.246Z,92.58
2022-12-27T04:06:24.197Z,93.02
2022-12-27T04:09:45.681Z,93.09
2022-12-27T04:13:10.523Z,93.46
2022-12-27T04:16:34.557Z,93.50
2022-12-27T04:19:54.582Z,93.75
2022-12-27T04:23:14.706Z,94.14
2022-12-27T04:26:36.756Z,94.06
2022-12-27T04:29:56.770Z,94.25
2022-12-27T04:33:16.950Z,94.18
2022-12-27T04:36:22.773Z,94.20
2022-12-27T04:39:25.515Z,94.70
2022-12-27T04:42:49.887Z,94.45
2022-12-27T04:46:09.973Z,94.83
2022-12-27T04:49:33.245Z,94.55
2022-12-27T04:52:53.565Z,94.86
2022-12-27T04:55:58.517Z,94.87
2022-12-27T04:59:20.031Z,94.94
2022-12-27T05:02:22.950Z,94.87
2022-12-27T05:05:26.703Z,95.01
2022-12-27T05:08:47.791Z,95.21
2022-12-27T05:12:21.342Z,95.58
2022-12-27T05:15:25.560Z,95.57
2022-12-27T05:18:28.315Z,95.45
2022-12-27T05:21:31.049Z,95.68
2022-12-27T05:24:54.232Z,95.77
2022-12-27T05:28:04.735Z,95.65
2022-12-27T05:31:09.927Z,95.63
2022-12-27T05:34:12.657Z,95.44
2022-12-27T05:37:15.390Z,95.70
2022-12-27T05:40:18.282Z,95.81
2022-12-27T05:43:20.955Z,95.77
2022-12-27T05:46:25.506Z,95.67
2022-12-27T05:49:28.308Z,96.02
2022-12-27T05:52:33.914Z,96.30
2022-12-27T05:56:03.802Z,96.01
2022-12-27T05:59:08.486Z,96.33
2022-12-27T06:02:12.553Z,96.46
2022-12-27T06:05:15.582Z,96.72
2022-12-27T06:08:18.493Z,96.62
2022-12-27T06:11:29.491Z,96.77
2022-12-27T06:14:32.209Z,96.91
2022-12-27T06:17:36.269Z,96.81
2022-12-27T06:20:38.988Z,96.72
2022-12-27T06:23:44.655Z,96.66
2022-12-27T06:26:48.064Z,97.00
2022-12-27T06:29:50.713Z,96.86
2022-12-27T06:32:57.267Z,96.88
2022-12-27T06:36:00.848Z,97.14
2022-12-27T06:39:03.780Z,96.98
2022-12-27T06:42:09.113Z,97.21
2022-12-27T06:45:12.000Z,97.12
2022-12-27T06:48:16.011Z,97.44
2022-12-27T06:51:20.924Z,97.44
2022-12-27T06:54:26.748Z,97.48
2022-12-27T06:57:29.614Z,97.60
2022-12-27T07:00:32.355Z,97.68
2022-12-27T07:03:36.470Z,97.75
2022-12-27T07:06:39.531Z,98.10
2022-12-27T07:09:42.238Z,97.70
2022-12-27T07:12:47.138Z,97.80
2022-12-27T07:15:49.815Z,97.93
2022-12-27T07:18:54.645Z,98.16
2022-12-27T07:22:00.281Z,98.53
2022-12-27T07:25:03.514Z,98.29
2022-12-27T07:28:06.500Z,98.30
2022-12-27T07:31:10.739Z,98.40
2022-12-27T07:34:17.413Z,98.42
2022-12-27T07:37:26.343Z,98.13
2022-12-27T07:40:33.341Z,98.50
2022-12-27T07:43:36.687Z,98.54
2022-12-27T07:46:40.146Z,98.41
2022-12-27T07:49:59.048Z,98.13
2022-12-27T07:53:02.266Z,98.62
2022-12-27T07:56:13.760Z,98.75
2022-12-27T07:59:16.591Z,98.70
2022-12-27T08:02:22.750Z,98.68
2022-12-27T08:05:27.986Z,98.54
2022-12-27T08:08:46.468Z,99.23
2022-12-27T08:11:49.125Z,99.37
2022-12-27T08:14:51.929Z,99.13
2022-12-27T08:17:54.614Z,99.08
2022-12-27T08:21:04.845Z,98.70
2022-12-27T08:24:07.977Z,97.80
2022-12-27T08:27:10.837Z,97.32
2022-12-27T08:30:14.487Z,97.78
2022-12-27T08:33:17.228Z,97.59
2022-12-27T08:36:53.317Z,96.75
2022-12-27T08:39:44.371Z,96.42
2022-12-27T08:42:47.283Z,97.02
2022-12-27T08:45:59.413Z,96.32
2022-12-27T08:49:02.208Z,96.12
2022-12-27T08:52:06.755Z,96.12
2022-12-27T08:55:10.305Z,96.26
2022-12-27T08:58:16.265Z,96.12
2022-12-27T09:01:19.712Z,95.49
2022-12-27T09:04:22.876Z,95.71
2022-12-27T09:07:26.962Z,95.41
2022-12-27T09:10:29.667Z,95.66
2022-12-27T09:13:33.123Z,94.92
2022-12-27T09:16:38.068Z,94.68
2022-12-27T09:19:40.773Z,94.27
2022-12-27T09:22:45.702Z,93.72
2022-12-27T09:25:48.479Z,93.09
2022-12-27T09:28:52.026Z,93.06
2022-12-27T09:31:55.712Z,92.48
2022-12-27T09:34:58.365Z,91.31
2022-12-27T09:38:02.402Z,90.79
2022-12-27T09:41:08.274Z,90.46
2022-12-27T09:44:14.658Z,89.99
2022-12-27T09:47:22.941Z,90.03
2022-12-27T09:50:31.541Z,89.43
2022-12-27T09:53:43.589Z,89.57
2022-12-27T09:57:18.219Z,89.49
2022-12-27T10:00:16.743Z,89.16
2022-12-27T10:03:22.885Z,88.57
2022-12-27T10:06:47.579Z,87.93
2022-12-27T10:10:03.737Z,87.67
2022-12-27T10:13:25.168Z,87.99
2022-12-27T10:16:35.965Z,84.37
2022-12-27T10:19:48.512Z,85.32
2022-12-27T10:23:04.336Z,85.09
2022-12-27T10:26:14.912Z,84.92
2022-12-27T10:29:21.695Z,85.09
2022-12-27T10:32:24.821Z,85.15
2022-12-27T10:35:28.902Z,85.55
2022-12-27T10:38:34.461Z,85.02
2022-12-27T10:41:52.660Z,84.75
2022-12-27T10:45:28.179Z,84.19
2022-12-27T10:48:47.426Z,82.80
2022-12-27T10:51:57.017Z,82.81
2022-12-27T10:54:59.701Z,83.13
2022-12-27T10:58:22.664Z,83.35
2022-12-27T11:01:27.271Z,82.83
2022-12-27T11:04:31.883Z,83.00
2022-12-27T11:07:35.896Z,82.74
2022-12-27T11:10:38.786Z,81.96
2022-12-27T11:13:43.233Z,81.55
2022-12-27T11:16:46.624Z,81.08
2022-12-27T11:19:49.805Z,80.93
2022-12-27T11:22:55.003Z,80.67
2022-12-27T11:26:06.974Z,81.29
2022-12-27T11:29:19.248Z,81.40
2022-12-27T11:32:23.803Z,80.68
2022-12-27T11:35:26.642Z,80.16
2022-12-27T11:38:38.043Z,80.93
2022-12-27T11:41:48.090Z,80.71
2022-12-27T11:45:12.040Z,80.94
2022-12-27T11:48:24.237Z,80.61
2022-12-27T11:51:51.547Z,81.37
2022-12-27T11:55:29.065Z,81.49
2022-12-27T11:59:03.066Z,81.75
2022-12-27T12:02:28.215Z,81.31
2022-12-27T12:05:58.389Z,81.77
2022-12-27T12:09:24.115Z,81.41
2022-12-27T12:12:48.803Z,81.20
2022-12-27T12:16:27.200Z,81.75
2022-12-27T12:19:46.578Z,81.21
2022-12-27T12:23:14.441Z,79.79
2022-12-27T12:26:22.790Z,79.93
2022-12-27T12:29:49.938Z,78.08
2022-12-27T12:33:06.770Z,76.99
2022-12-27T12:36:28.611Z,77.51
2022-12-27T12:39:53.229Z,78.01
2022-12-27T12:43:18.713Z,75.82
2022-12-27T12:46:32.274Z,76.14
2022-12-27T12:49:53.855Z,77.19
2022-12-27T12:53:20.659Z,77.59
2022-12-27T12:56:43.379Z,78.17
2022-12-27T13:00:09.710Z,78.69
2022-12-27T13:03:34.913Z,78.73
2022-12-27T13:07:15.771Z,79.65
2022-12-27T13:10:51.686Z,79.85
2022-12-27T13:14:07.812Z,80.12
2022-12-27T13:17:17.912Z,79.74
2022-12-27T13:20:47.045Z,78.36
2022-12-27T13:24:02.689Z,78.46
2022-12-27T13:27:14.721Z,79.13
2022-12-27T13:30:22.938Z,79.80
2022-12-27T13:33:35.929Z,79.62
2022-12-27T13:36:57.568Z,79.48
2022-12-27T13:40:25.627Z,79.44
2022-12-27T13:43:46.521Z,79.00
2022-12-27T13:47:02.031Z,78.43
2022-12-27T13:50:29.000Z,78.54
2022-12-27T13:53:52.159Z,78.69
2022-12-27T13:57:07.595Z,78.60
2022-12-27T14:00:18.196Z,78.13
2022-12-27T14:03:54.614Z,78.54
2022-12-27T14:07:10.959Z,78.16
2022-12-27T14:10:21.698Z,78.33
2022-12-27T14:13:27.893Z,78.73
2022-12-27T14:16:42.415Z,78.85
2022-12-27T14:20:12.060Z,79.00
2022-12-27T14:23:34.174Z,79.09
2022-12-27T14:27:31.191Z,79.05
2022-12-27T14:31:02.199Z,79.26
2022-12-27T14:34:28.942Z,79.31
2022-12-27T14:38:13.721Z,79.36
2022-12-27T14:42:04.253Z,79.38
2022-12-27T14:45:41.676Z,79.51
2022-12-27T14:49:11.159Z,79.42
2022-12-27T14:52:46.852Z,79.50
2022-12-27T14:56:00.494Z,79.83
2022-12-27T14:59:19.176Z,80.52
2022-12-27T15:02:35.433Z,80.36
2022-12-27T15:05:56.975Z,80.74
2022-12-27T15:09:12.109Z,81.25
2022-12-27T15:12:25.283Z,81.36
2022-12-27T15:15:52.138Z,81.80
2022-12-27T15:19:13.955Z,81.89
2022-12-27T15:22:24.667Z,82.19
2022-12-27T15:25:56.533Z,82.39
2022-12-27T15:29:30.850Z,82.75
2022-12-27T15:32:47.000Z,82.54
2022-12-27T15:39:52.086Z,83.11
2022-12-27T15:43:02.084Z,83.46
2022-12-27T15:46:24.024Z,83.79
2022-12-27T15:50:01.200Z,84.11
2022-12-27T15:53:36.711Z,84.41
2022-12-27T15:57:10.659Z,84.75
2022-12-27T16:00:34.946Z,85.09
2022-12-27T16:03:45.175Z,85.01
2022-12-27T16:07:04.203Z,85.46
2022-12-27T16:10:43.739Z,85.96
2022-12-27T16:13:49.727Z,86.38
2022-12-27T16:17:05.763Z,86.18
2022-12-27T16:21:29.381Z,86.76
2022-12-27T16:28:14.745Z,86.73
2022-12-27T16:31:57.763Z,87.11
2022-12-27T16:35:15.624Z,87.20
2022-12-27T16:38:24.751Z,87.40
2022-12-27T16:42:03.770Z,87.77
2022-12-27T16:45:40.491Z,87.77
2022-12-27T16:49:01.597Z,88.07
2022-12-27T16:52:46.207Z,87.80
2022-12-27T16:56:20.653Z,88.40
2022-12-27T16:59:59.091Z,88.62
2022-12-27T17:03:30.977Z,88.70
2022-12-27T17:06:56.317Z,88.94
2022-12-27T17:10:35.938Z,89.20
2022-12-27T17:13:47.786Z,89.65
2022-12-27T17:16:54.965Z,89.63
2022-12-27T17:20:03.430Z,89.80
2022-12-27T17:23:06.519Z,90.49
2022-12-27T17:26:53.994Z,90.28
2022-12-27T17:30:10.428Z,90.61
2022-12-27T17:33:26.970Z,90.69
2022-12-27T17:36:41.932Z,90.97
2022-12-27T17:40:02.876Z,91.80
2022-12-27T17:43:37.580Z,92.30
2022-12-27T17:46:53.384Z,92.83
2022-12-27T17:50:00.176Z,92.80
2022-12-27T17:53:48.876Z,93.27
2022-12-27T17:57:25.075Z,93.10
2022-12-27T18:00:37.386Z,92.97
2022-12-27T18:04:13.582Z,92.62
2022-12-27T18:07:43.485Z,92.78
2022-12-27T18:10:54.967Z,92.97
2022-12-27T18:14:04.121Z,93.04
2022-12-27T18:17:28.991Z,93.00
2022-12-27T18:20:41.591Z,92.91
2022-12-27T18:23:55.233Z,93.11
2022-12-27T18:27:32.878Z,93.08
2022-12-27T18:30:41.129Z,93.36
2022-12-27T18:33:47.630Z,93.50
2022-12-27T18:36:57.749Z,93.61
2022-12-27T18:40:05.321Z,93.50
2022-12-27T18:43:15.772Z,93.78
2022-12-27T18:46:28.163Z,93.93
2022-12-27T18:49:33.758Z,93.76
2022-12-27T18:52:41.217Z,93.76
2022-12-27T18:55:58.038Z,93.65
2022-12-27T18:59:04.119Z,93.90
2022-12-27T19:02:35.413Z,93.69
2022-12-27T19:05:38.465Z,93.97
2022-12-27T19:08:47.374Z,93.88
2022-12-27T19:11:56.664Z,93.91
2022-12-27T19:14:59.583Z,93.99
2022-12-27T19:18:05.499Z,94.66
2022-12-27T19:21:08.451Z,94.33
2022-12-27T19:24:30.481Z,95.37
2022-12-27T19:27:34.860Z,96.04
2022-12-27T19:30:42.235Z,96.86
2022-12-27T19:33:48.060Z,96.58
2022-12-27T19:36:51.657Z,96.61
2022-12-27T19:39:55.126Z,96.92
2022-12-27T19:42:59.484Z,96.82
2022-12-27T19:46:02.270Z,96.64
2022-12-27T19:49:40.257Z,96.68
2022-12-27T19:52:28.050Z,96.70
2022-12-27T19:55:31.057Z,96.46
2022-12-27T19:58:35.425Z,96.84
2022-12-27T20:01:39.195Z,97.62
2022-12-27T20:04:42.172Z,97.29
2022-12-27T20:07:44.917Z,97.34
2022-12-27T20:10:47.686Z,97.40
2022-12-27T20:13:51.998Z,97.15
2022-12-27T20:16:55.054Z,96.90
2022-12-27T20:19:57.944Z,96.92
2022-12-27T20:23:00.714Z,96.51
2022-12-27T20:26:03.555Z,96.83
2022-12-27T20:29:07.674Z,97.29
2022-12-27T20:32:10.513Z,97.68
2022-12-27T20:35:13.393Z,98.10
2022-12-27T20:38:16.174Z,98.14
2022-12-27T20:41:20.912Z,98.50
2022-12-27T20:44:25.083Z,98.85
2022-12-27T20:47:27.821Z,98.80
2022-12-27T20:50:30.579Z,99.36
2022-12-27T20:53:33.420Z,98.73
2022-12-27T20:56:37.175Z,99.71
2022-12-27T20:59:41.457Z,99.85
2022-12-27T21:02:44.595Z,100.00
2022-12-27T21:05:47.571Z,100.00
2022-12-27T21:08:56.619Z,100.00
2022-12-27T21:12:00.140Z,100.00
2022-12-27T21:15:05.825Z,100.00
2022-12-27T21:18:08.630Z,100.00
2022-12-27T21:21:14.459Z,100.00
2022-12-27T21:24:18.173Z,100.00
2022-12-27T21:27:20.952Z,100.00
2022-12-27T21:30:25.181Z,100.00
2022-12-27T21:33:28.611Z,100.00
2022-12-27T21:36:34.012Z,100.00
2022-12-27T21:39:36.784Z,100.00
2022-12-27T21:42:39.595Z,100.00
2022-12-27T21:45:43.638Z,100.00
2022-12-27T21:48:46.918Z,100.00
2022-12-27T21:51:49.901Z,100.00
2022-12-27T21:54:52.588Z,100.00
2022-12-27T21:57:55.297Z,100.00
2022-12-27T22:01:08.312Z,100.00
2022-12-27T22:04:11.745Z,100.00
2022-12-27T22:07:14.463Z,100.00
2022-12-27T22:10:17.576Z,100.00
2022-12-27T22:13:20.333Z,100.00
2022-12-27T22:16:26.202Z,100.00
2022-12-27T22:19:29.086Z,100.00
2022-12-27T22:22:32.158Z,99.91
2022-12-27T22:25:34.853Z,100.00
2022-12-27T22:28:37.506Z,100.00
2022-12-27T22:31:42.959Z,100.00
2022-12-27T22:34:45.652Z,100.00
2022-12-27T22:37:48.384Z,100.00
2022-12-27T22:40:51.872Z,99.32
2022-12-27T22:43:56.602Z,99.82
2022-12-27T22:47:26.295Z,99.52
2022-12-27T22:50:23.573Z,99.77
2022-12-27T22:53:26.273Z,100.00
2022-12-27T22:56:30.547Z,100.00
2022-12-27T22:59:33.263Z,100.00
2022-12-27T23:02:37.822Z,100.00
2022-12-27T23:05:41.665Z,99.89
2022-12-27T23:08:45.550Z,99.98
2022-12-27T23:11:48.285Z,100.00
2022-12-27T23:14:57.133Z,99.95
2022-12-27T23:18:05.848Z,100.00
2022-12-27T23:21:22.683Z,99.53
2022-12-27T23:24:30.164Z,99.71
2022-12-27T23:27:32.914Z,99.59
2022-12-27T23:30:38.077Z,99.51
2022-12-27T23:33:43.544Z,99.97
2022-12-27T23:36:46.270Z,100.00
2022-12-27T23:39:51.405Z,100.00
2022-12-27T23:42:54.202Z,100.00
2022-12-27T23:45:56.906Z,100.00
2022-12-27T23:49:03.249Z,100.00
2022-12-27T23:52:09.138Z,100.00
2022-12-27T23:55:20.921Z,100.00
2022-12-27T23:58:28.371Z,100.00
